Contact.

    Ici la base.


    Deprecated: wp_make_content_images_responsive est obsolète depuis la version 5.5.0 ! Utilisez wp_filter_content_tags() à la place. in /home/flyandfubn/www/wp-includes/functions.php on line 4862

    Implantée sur l’aérodrome de Reims-Prunay, Fly&Fun et ses membres profitent de la région champenoise pour voler dans un cadre exceptionnel et partager cette ferveur commune autour de l’aéronautique.

    ouvrir google map

    Social Wall.

    Facebook.

    This message is only visible to admins:
    Unable to display Facebook posts

    Error: (#12) description field is deprecated for versions v3.3 and higher
    Type: OAuthException
    Code: 12
    Click here to Troubleshoot.
    METAR :

    LFQA 142200Z AUTO 25004KT 9999 FEW013 SCT039 09/07 Q1010


    vue en direct sur l'aérodrome
    mentions légales politique de confidentialité
    Cochet Concept
    cx